Time;durP1;ratioP1;P1;durP2;ratioP2;P2;SDS_P1;SDS_P2;PMS_P1;PMS_P2;Temp;Humidity;BMP_temperature;BMP_pressure;BME280_temperature;BME280_humidity;BME280_pressure;Samples;Min_cycle;Max_cycle;Signal;HPM_P1;HPM_P2
2021/11/17 02:28:14;;;;;;;41.13;17.93;;;7.10;99.90;;;;;;5012911;28;20073;-85
2021/11/17 02:30:59;;;;;;;43.70;18.30;;;7.10;99.90;;;;;;4995460;28;20124;-85
2021/11/17 02:33:49;;;;;;;38.03;18.10;;;7.10;99.90;;;;;;4995267;28;20038;-85
2021/11/17 02:36:14;;;;;;;39.70;16.97;;;7.10;99.90;;;;;;4979136;28;20121;-84
2021/11/17 02:39:11;;;;;;;38.43;17.10;;;7.10;99.90;;;;;;4995248;28;20037;-85
2021/11/17 02:41:55;;;;;;;38.67;17.73;;;7.10;99.90;;;;;;4995281;28;20434;-85
2021/11/17 02:44:39;;;;;;;41.33;18.13;;;7.10;99.90;;;;;;4995024;28;20099;-85
2021/11/17 02:47:23;;;;;;;38.93;17.57;;;7.20;99.90;;;;;;4994154;28;20037;-85
2021/11/17 02:50:07;;;;;;;38.47;17.07;;;7.20;99.90;;;;;;4979809;28;20038;-85
2021/11/17 02:52:51;;;;;;;39.40;17.10;;;7.10;99.90;;;;;;4995157;28;20129;-86
2021/11/17 02:55:23;;;;;;;42.67;17.97;;;7.10;99.90;;;;;;5012347;28;20542;-85
2021/11/17 02:57:57;;;;;;;37.73;17.40;;;7.20;99.90;;;;;;4994669;28;20033;-86
2021/11/17 03:00:42;;;;;;;37.80;16.70;;;7.20;99.90;;;;;;4994441;28;20029;-86
2021/11/17 03:03:10;;;;;;;34.97;17.13;;;7.20;99.90;;;;;;5010914;28;20037;-85
2021/11/17 03:06:04;;;;;;;35.45;17.45;;;7.20;99.90;;;;;;4993837;28;20087;-85
2021/11/17 03:08:33;;;;;;;36.83;16.73;;;7.20;99.90;;;;;;4978716;28;20041;-85
2021/11/17 03:11:08;;;;;;;39.57;18.67;;;7.20;99.90;;;;;;4978478;28;20594;-85
2021/11/17 03:14:36;;;;;;;35.50;17.40;;;7.20;99.90;;;;;;4978529;28;20034;-85
2021/11/17 03:17:13;;;;;;;39.30;17.10;;;7.10;99.90;;;;;;4941211;29;20126;-85
2021/11/17 03:19:58;;;;;;;36.80;16.63;;;7.20;99.90;;;;;;4935385;29;20062;-85
2021/11/17 03:22:43;;;;;;;37.23;16.87;;;7.20;99.90;;;;;;4984789;28;20144;-86
2021/11/17 03:25:37;;;;;;;38.47;18.17;;;7.20;99.90;;;;;;5012327;28;20029;-86
2021/11/17 03:28:09;;;;;;;41.63;18.57;;;7.20;99.90;;;;;;4980884;28;20038;-85
2021/11/17 03:31:09;;;;;;;38.57;17.30;;;7.20;99.90;;;;;;4977531;28;20430;-85
2021/11/17 03:34:18;;;;;;;40.00;17.87;;;7.20;99.90;;;;;;4994469;28;20629;-86
2021/11/17 03:36:50;;;;;;;38.40;17.00;;;7.20;99.90;;;;;;4994220;28;20034;-85
2021/11/17 03:39:35;;;;;;;39.73;17.37;;;7.20;99.90;;;;;;4977617;28;20117;-86
2021/11/17 03:42:09;;;;;;;39.93;17.50;;;7.20;99.90;;;;;;4993944;28;20034;-86
2021/11/17 03:44:53;;;;;;;38.17;17.53;;;7.20;99.90;;;;;;4977892;28;20128;-85
2021/11/17 03:47:43;;;;;;;39.70;18.03;;;7.10;99.90;;;;;;5010786;28;20481;-86
2021/11/17 03:50:36;;;;;;;39.10;18.38;;;7.20;99.90;;;;;;4966401;28;20056;-86
2021/11/17 03:53:32;;;;;;;36.23;16.40;;;7.20;99.90;;;;;;4977933;28;20041;-85
2021/11/17 03:56:20;;;;;;;36.93;17.30;;;7.10;99.90;;;;;;4993793;28;20030;-86
2021/11/17 03:58:56;;;;;;;38.40;17.50;;;7.20;99.90;;;;;;4976171;23;20101;-86
2021/11/17 04:01:44;;;;;;;38.27;17.60;;;7.20;99.90;;;;;;4969611;28;20035;-86
2021/11/17 04:04:39;;;;;;;37.93;17.17;;;7.10;99.90;;;;;;4970432;28;20112;-86
2021/11/17 04:07:23;;;;;;;37.77;16.77;;;7.20;99.90;;;;;;4954562;28;20122;-85
2021/11/17 04:09:51;;;;;;;39.03;17.77;;;7.10;99.90;;;;;;4970087;28;20109;-85
2021/11/17 04:12:37;;;;;;;36.97;17.17;;;7.10;99.90;;;;;;4970667;28;20046;-86
2021/11/17 04:15:10;;;;;;;35.73;16.40;;;7.10;99.90;;;;;;4970755;28;20035;-86
2021/11/17 04:18:00;;;;;;;37.70;16.60;;;7.10;99.90;;;;;;4970063;28;20034;-86
2021/11/17 04:20:55;;;;;;;36.77;16.73;;;7.20;99.90;;;;;;4989337;28;20037;-87
2021/11/17 04:23:32;;;;;;;38.70;18.27;;;7.20;99.90;;;;;;4943768;28;20030;-84
2021/11/17 04:26:24;;;;;;;37.37;17.87;;;7.20;99.90;;;;;;4975219;28;20077;-86
2021/11/17 04:29:02;;;;;;;38.53;17.40;;;7.20;99.90;;;;;;4958669;28;20084;-86
2021/11/17 04:32:02;;;;;;;38.27;17.80;;;7.10;99.90;;;;;;4973969;28;20113;-85
2021/11/17 04:34:43;;;;;;;39.77;18.13;;;7.10;99.90;;;;;;4958067;28;20430;-85
2021/11/17 04:37:25;;;;;;;38.97;16.37;;;7.20;99.90;;;;;;4990005;28;20425;-85
2021/11/17 04:40:06;;;;;;;40.33;17.27;;;7.20;99.90;;;;;;4973698;28;20034;-84
2021/11/17 04:42:51;;;;;;;34.13;16.37;;;7.20;99.90;;;;;;4992072;28;20049;-84
2021/11/17 04:45:32;;;;;;;37.50;17.00;;;7.20;99.90;;;;;;4972270;28;20029;-85
2021/11/17 04:48:11;;;;;;;38.77;17.57;;;7.20;99.90;;;;;;4935269;29;20035;-85
2021/11/17 04:50:49;;;;;;;35.50;16.53;;;7.20;99.90;;;;;;4949333;28;20039;-85
2021/11/17 04:53:37;;;;;;;34.27;15.80;;;7.20;99.90;;;;;;4951368;29;20118;-85
2021/11/17 04:56:27;;;;;;;36.87;16.77;;;7.20;99.90;;;;;;4933447;29;20035;-85
2021/11/17 04:58:55;;;;;;;36.90;16.67;;;7.20;99.90;;;;;;4950708;28;20464;-85
2021/11/17 05:01:33;;;;;;;38.60;16.95;;;7.20;99.90;;;;;;4951059;29;20115;-85
2021/11/17 05:04:30;;;;;;;43.90;19.03;;;7.20;99.90;;;;;;4951061;29;20047;-85
2021/11/17 05:07:15;;;;;;;39.13;17.63;;;7.20;99.90;;;;;;4948092;29;20138;-85
2021/11/17 05:10:10;;;;;;;41.07;17.47;;;7.30;99.90;;;;;;4934681;29;20040;-85
2021/11/17 05:13:17;;;;;;;42.23;17.83;;;7.20;99.90;;;;;;4950013;28;20054;-85
2021/11/17 05:15:52;;;;;;;36.50;16.83;;;7.30;99.90;;;;;;4953898;28;20130;-85
2021/11/17 05:18:34;;;;;;;39.33;17.17;;;7.20;99.90;;;;;;4954294;28;20122;-85
2021/11/17 05:21:37;;;;;;;38.53;17.13;;;7.30;99.90;;;;;;4952816;29;20130;-85
2021/11/17 05:24:43;;;;;;;41.97;17.17;;;7.20;99.90;;;;;;4954412;29;20027;-84
2021/11/17 05:27:40;;;;;;;38.83;16.17;;;7.30;99.90;;;;;;4935827;29;20072;-86
2021/11/17 05:30:27;;;;;;;35.23;16.43;;;7.30;99.90;;;;;;4953724;28;20603;-85
2021/11/17 05:33:31;;;;;;;34.90;15.87;;;7.30;99.90;;;;;;4938218;29;20034;-85
2021/11/17 05:36:30;;;;;;;38.37;17.07;;;7.30;99.90;;;;;;4951104;29;20035;-85
2021/11/17 05:39:05;;;;;;;39.22;16.50;;;7.30;99.90;;;;;;4951241;29;20381;-85
2021/11/17 05:41:47;;;;;;;36.63;16.50;;;7.20;99.90;;;;;;4938240;29;20031;-85
2021/11/17 05:44:40;;;;;;;38.90;16.10;;;7.20;99.90;;;;;;4954593;29;20035;-87
2021/11/17 05:47:32;;;;;;;39.00;16.43;;;7.20;99.90;;;;;;4957763;28;20039;-83
2021/11/17 05:50:16;;;;;;;36.80;16.40;;;7.20;99.90;;;;;;4955337;28;20105;-85
2021/11/17 05:52:53;;;;;;;36.93;15.23;;;7.20;99.90;;;;;;4955545;29;20031;-85
2021/11/17 05:55:53;;;;;;;32.60;15.23;;;7.30;99.90;;;;;;4954734;28;20055;-85
2021/11/17 05:58:32;;;;;;;38.93;17.03;;;7.30;99.90;;;;;;4954387;28;20042;-85
2021/11/17 06:01:19;;;;;;;40.20;17.10;;;7.30;99.90;;;;;;4956530;28;20042;-85
2021/11/17 06:04:01;;;;;;;38.47;16.10;;;7.30;99.90;;;;;;4957638;29;20039;-85
2021/11/17 06:06:27;;;;;;;33.70;15.50;;;7.30;99.90;;;;;;4957950;29;20035;-84
2021/11/17 06:08:55;;;;;;;37.90;16.13;;;7.40;99.90;;;;;;4960010;28;20039;-85
2021/11/17 06:11:36;;;;;;;36.78;16.02;;;7.30;99.90;;;;;;4955135;28;20157;-85
2021/11/17 06:14:04;;;;;;;38.00;17.27;;;7.40;99.90;;;;;;4955694;29;20510;-85
2021/11/17 06:16:34;;;;;;;33.90;15.57;;;7.30;99.90;;;;;;4953963;29;20430;-86
2021/11/17 06:19:00;;;;;;;35.77;16.43;;;7.30;99.90;;;;;;4938199;29;20035;-86
2021/11/17 06:21:26;;;;;;;34.87;15.87;;;7.30;99.90;;;;;;4938733;29;20089;-87
2021/11/17 06:23:58;;;;;;;38.13;16.30;;;7.30;99.90;;;;;;4938523;29;20035;-85
2021/11/17 06:26:27;;;;;;;36.30;15.07;;;7.30;99.90;;;;;;4938416;29;20448;-87
2021/11/17 06:28:59;;;;;;;36.17;16.50;;;7.30;99.90;;;;;;4956688;28;20456;-85
2021/11/17 06:31:26;;;;;;;35.67;15.83;;;7.30;99.90;;;;;;4942448;29;20035;-87
2021/11/17 06:33:52;;;;;;;33.67;15.33;;;7.30;99.90;;;;;;4937294;29;20038;-86
2021/11/17 06:36:18;;;;;;;33.43;15.17;;;7.30;99.90;;;;;;4951101;29;20031;-85
2021/11/17 06:38:49;;;;;;;37.10;15.97;;;7.30;99.90;;;;;;4950907;28;20038;-86
2021/11/17 06:41:16;;;;;;;33.97;16.10;;;7.40;99.90;;;;;;4934483;29;20102;-86
2021/11/17 06:43:42;;;;;;;36.30;16.87;;;7.40;99.90;;;;;;4934867;29;20483;-86
2021/11/17 06:46:08;;;;;;;37.33;16.27;;;7.40;99.90;;;;;;4934312;29;20031;-86
2021/11/17 06:48:34;;;;;;;35.57;16.00;;;7.30;99.90;;;;;;4934462;28;20035;-86
2021/11/17 06:51:01;;;;;;;34.37;16.03;;;7.40;99.90;;;;;;4952665;29;20027;-86
2021/11/17 06:53:28;;;;;;;34.47;15.97;;;7.40;99.90;;;;;;4952341;29;20027;-86
2021/11/17 06:55:55;;;;;;;35.03;15.67;;;7.40;99.90;;;;;;4952198;29;20038;-86
2021/11/17 06:58:21;;;;;;;34.57;16.03;;;7.40;99.90;;;;;;4953549;28;20035;-86
2021/11/17 07:00:50;;;;;;;33.70;15.40;;;7.50;99.90;;;;;;4952260;29;20046;-87
2021/11/17 07:03:16;;;;;;;31.02;14.80;;;7.50;99.90;;;;;;4954049;29;20047;-86
2021/11/17 07:05:42;;;;;;;33.37;15.47;;;7.50;99.90;;;;;;4937720;29;20479;-84
2021/11/17 07:08:08;;;;;;;37.70;16.17;;;7.50;99.90;;;;;;4952909;29;20077;-86
2021/11/17 07:10:36;;;;;;;36.07;16.60;;;7.50;99.90;;;;;;4952773;28;20063;-84
2021/11/17 07:13:03;;;;;;;36.63;16.23;;;7.50;99.90;;;;;;4940551;29;20094;-85
2021/11/17 07:15:31;;;;;;;42.53;18.47;;;7.80;99.90;;;;;;4940169;29;20126;-83
2021/11/17 07:17:57;;;;;;;38.87;16.80;;;8.50;99.90;;;;;;4938257;29;20031;-84
2021/11/17 07:20:23;;;;;;;30.47;15.67;;;9.10;99.90;;;;;;4937210;29;20043;-84
2021/11/17 07:22:49;;;;;;;29.80;14.33;;;8.90;99.90;;;;;;4937585;29;20499;-84
2021/11/17 07:25:19;;;;;;;30.87;14.10;;;8.70;99.90;;;;;;4937975;29;20073;-85
2021/11/17 07:27:44;;;;;;;;;;;8.70;99.90;;;;;;4937828;29;20023;-88
2021/11/17 07:30:13;;;;;;;30.23;14.97;;;8.60;99.90;;;;;;4952193;28;19929;-86
2021/11/17 07:32:39;;;;;;;34.03;14.48;;;8.50;99.90;;;;;;4935864;29;20090;-86
2021/11/17 07:35:06;;;;;;;30.53;14.83;;;8.40;99.90;;;;;;4953525;29;20039;-84
2021/11/17 07:37:32;;;;;;;34.33;16.07;;;8.30;99.90;;;;;;4936526;29;20404;-86
2021/11/17 07:39:58;;;;;;;31.53;15.37;;;8.20;99.90;;;;;;4952724;28;20023;-88
2021/11/17 07:42:24;;;;;;;36.70;16.93;;;8.10;99.90;;;;;;4936146;29;20422;-88
2021/11/17 07:44:51;;;;;;;31.03;14.43;;;8.10;99.90;;;;;;4937114;29;20377;-87
2021/11/17 07:47:18;;;;;;;29.07;14.30;;;8.10;99.90;;;;;;4935928;29;20035;-86
2021/11/17 07:49:44;;;;;;;28.37;14.03;;;8.10;99.90;;;;;;4961446;28;20506;-87
2021/11/17 07:52:10;;;;;;;34.30;15.27;;;8.10;99.90;;;;;;4957044;28;20034;-84
2021/11/17 07:54:36;;;;;;;29.77;14.27;;;8.10;99.90;;;;;;4956878;28;20042;-83
2021/11/17 07:57:03;;;;;;;27.57;13.63;;;8.10;99.90;;;;;;4958032;28;20490;-83
2021/11/17 07:59:30;;;;;;;28.50;14.70;;;8.10;99.90;;;;;;4956520;28;20126;-83
2021/11/17 08:02:01;;;;;;;26.00;13.20;;;8.00;99.90;;;;;;4976651;28;20415;-85
2021/11/17 08:04:33;;;;;;;28.53;12.80;;;8.10;99.90;;;;;;4978156;28;20030;-84
2021/11/17 08:07:00;;;;;;;29.17;14.57;;;8.00;99.90;;;;;;4975029;28;20043;-84
2021/11/17 08:09:25;;;;;;;32.10;14.10;;;8.10;99.90;;;;;;4973737;28;20396;-83
2021/11/17 08:11:51;;;;;;;27.10;13.97;;;8.00;99.90;;;;;;4957414;28;20031;-83
2021/11/17 08:14:17;;;;;;;27.37;12.43;;;8.00;99.90;;;;;;4974051;28;20031;-83
2021/11/17 08:16:43;;;;;;;24.47;12.53;;;8.00;99.90;;;;;;4971907;28;20038;-84
2021/11/17 08:19:09;;;;;;;24.77;12.67;;;8.00;99.90;;;;;;4972808;28;20045;-83
2021/11/17 08:21:35;;;;;;;24.90;13.00;;;8.00;99.90;;;;;;4972557;28;20031;-87
2021/11/17 08:24:01;;;;;;;21.83;12.43;;;8.00;99.90;;;;;;4986691;28;20030;-85
2021/11/17 08:26:27;;;;;;;26.03;13.67;;;8.00;99.90;;;;;;4969946;28;20383;-84
2021/11/17 08:28:54;;;;;;;24.50;13.03;;;8.00;99.90;;;;;;4970418;28;20050;-85
2021/11/17 08:31:24;;;;;;;26.07;13.03;;;8.00;99.90;;;;;;4970559;28;20503;-84
2021/11/17 08:33:50;;;;;;;25.60;12.73;;;8.00;99.90;;;;;;4971808;28;20058;-85
2021/11/17 08:36:15;;;;;;;24.40;12.60;;;8.00;99.90;;;;;;4971062;28;20035;-85
2021/11/17 08:38:44;;;;;;;23.97;12.17;;;8.00;99.90;;;;;;4970446;28;20042;-87
2021/11/17 08:41:11;;;;;;;24.60;12.05;;;8.10;99.90;;;;;;4972146;28;20112;-83
2021/11/17 08:43:39;;;;;;;28.20;12.43;;;8.00;99.90;;;;;;4972926;28;20125;-85
2021/11/17 08:46:05;;;;;;;23.23;11.67;;;8.10;99.90;;;;;;4974783;28;20099;-85
2021/11/17 08:48:33;;;;;;;22.57;12.00;;;8.00;99.90;;;;;;4977152;28;20058;-84
2021/11/17 08:51:02;;;;;;;25.83;12.27;;;8.00;99.90;;;;;;4977130;28;20030;-84
2021/11/17 08:53:31;;;;;;;23.58;12.45;;;8.00;99.90;;;;;;4979308;28;20039;-85
2021/11/17 08:55:58;;;;;;;23.73;12.50;;;8.10;99.90;;;;;;4976175;28;20039;-87
2021/11/17 08:58:25;;;;;;;26.47;13.30;;;8.10;99.90;;;;;;4975840;28;20042;-82
2021/11/17 09:00:51;;;;;;;25.87;13.07;;;8.10;99.90;;;;;;4991812;28;20035;-84
2021/11/17 09:03:18;;;;;;;22.33;12.20;;;8.10;99.90;;;;;;4979134;28;20090;-84
2021/11/17 09:05:47;;;;;;;24.80;11.77;;;8.10;99.90;;;;;;4980722;28;20027;-84
2021/11/17 09:08:14;;;;;;;23.70;12.07;;;8.10;99.90;;;;;;4978237;28;20034;-84
2021/11/17 09:10:44;;;;;;;23.20;12.40;;;8.20;99.90;;;;;;4975622;28;20046;-83
2021/11/17 09:13:09;;;;;;;;;;;8.20;99.90;;;;;;4977161;28;20384;-83
2021/11/17 09:15:38;;;;;;;24.00;11.47;;;8.20;99.90;;;;;;4993474;28;19914;-84
2021/11/17 09:18:06;;;;;;;23.77;12.43;;;8.20;99.90;;;;;;4977184;28;20449;-83
2021/11/17 09:20:33;;;;;;;22.93;11.77;;;8.10;99.90;;;;;;4975190;28;20045;-85
2021/11/17 09:22:59;;;;;;;23.93;11.83;;;8.10;99.90;;;;;;4991940;28;20035;-85
2021/11/17 09:25:25;;;;;;;24.10;12.33;;;8.20;99.90;;;;;;4976768;28;20088;-83
2021/11/17 09:27:52;;;;;;;29.57;11.80;;;8.10;99.90;;;;;;4977023;28;20054;-83
2021/11/17 09:30:22;;;;;;;27.43;12.57;;;8.20;99.90;;;;;;4975590;28;20054;-84
2021/11/17 09:32:50;;;;;;;22.03;11.70;;;8.10;99.90;;;;;;4992597;28;20035;-84
2021/11/17 09:35:16;;;;;;;24.23;11.47;;;8.10;99.90;;;;;;4991810;28;20042;-82
2021/11/17 09:37:45;;;;;;;24.30;11.97;;;8.20;99.90;;;;;;4975282;28;20030;-84
2021/11/17 09:40:14;;;;;;;27.77;12.50;;;8.20;99.90;;;;;;4991361;28;20037;-85
2021/11/17 09:42:40;;;;;;;23.10;11.73;;;8.20;99.90;;;;;;4977828;28;20054;-84
2021/11/17 09:45:09;;;;;;;22.33;11.23;;;8.20;99.90;;;;;;4976018;28;20039;-85
2021/11/17 09:47:39;;;;;;;25.52;12.57;;;8.20;99.90;;;;;;4975248;28;20134;-84
2021/11/17 09:50:25;;;;;;;24.03;11.47;;;8.20;99.90;;;;;;4976749;28;20421;-81
2021/11/17 09:53:04;;;;;;;22.83;11.60;;;8.20;99.90;;;;;;4974533;28;20077;-83
2021/11/17 09:55:41;;;;;;;24.80;11.40;;;8.20;99.90;;;;;;4974947;28;20089;-81
2021/11/17 09:58:37;;;;;;;22.53;11.37;;;8.20;99.90;;;;;;4991711;28;20051;-85
2021/11/17 10:01:42;;;;;;;23.97;12.27;;;8.30;99.90;;;;;;4975357;28;20087;-84
2021/11/17 10:04:28;;;;;;;26.80;12.83;;;8.30;99.90;;;;;;4937181;28;20118;-85
2021/11/17 10:12:50;;;;;;;25.40;12.47;;;8.30;99.90;;;;;;4978323;28;20061;-84
2021/11/17 10:15:22;;;;;;;22.83;11.33;;;8.30;99.90;;;;;;4994005;28;20030;-82
2021/11/17 10:17:53;;;;;;;24.77;12.20;;;8.30;99.90;;;;;;4977460;28;20030;-85
2021/11/17 10:20:37;;;;;;;24.73;12.03;;;8.30;99.90;;;;;;4984524;28;20153;-84
2021/11/17 10:23:06;;;;;;;26.57;12.27;;;8.30;99.90;;;;;;4979476;28;20023;-82
2021/11/17 10:25:56;;;;;;;24.55;11.35;;;8.30;99.90;;;;;;4975928;28;20027;-82
2021/11/17 10:28:40;;;;;;;25.37;11.87;;;8.40;99.90;;;;;;4976064;28;20423;-82
2021/11/17 10:31:17;;;;;;;25.97;11.97;;;8.40;99.90;;;;;;4977189;28;20030;-81
2021/11/17 10:33:54;;;;;;;27.33;11.60;;;8.40;99.90;;;;;;4978849;28;20415;-83
2021/11/17 10:36:23;;;;;;;24.60;11.57;;;8.40;99.90;;;;;;4989082;23;20130;-85
2021/11/17 10:39:12;;;;;;;26.85;12.82;;;8.40;99.90;;;;;;4981402;28;20034;-83
2021/11/17 10:41:49;;;;;;;;;;;8.40;99.90;;;;;;4977700;28;20118;-85
2021/11/17 10:44:15;;;;;;;21.13;10.83;;;8.40;99.90;;;;;;4980444;28;19965;-84
2021/11/17 10:46:51;;;;;;;25.97;11.80;;;8.40;99.90;;;;;;4980902;28;20098;-85
2021/11/17 10:49:23;;;;;;;25.23;12.03;;;8.40;99.90;;;;;;4961355;28;20035;-85
2021/11/17 10:52:05;;;;;;;27.53;12.60;;;8.50;99.90;;;;;;4974968;29;20035;-84
2021/11/17 10:54:33;;;;;;;23.80;11.70;;;8.50;99.90;;;;;;4991659;28;20094;-84
2021/11/17 10:57:16;;;;;;;24.50;12.50;;;8.50;99.90;;;;;;4975015;28;20078;-84
2021/11/17 10:59:42;;;;;;;26.80;12.67;;;8.50;99.90;;;;;;4973526;29;20121;-85
2021/11/17 11:02:11;;;;;;;25.93;12.33;;;8.40;99.90;;;;;;4974077;28;20049;-83
2021/11/17 11:04:46;;;;;;;25.73;12.60;;;8.50;99.90;;;;;;4969224;28;20407;-82
2021/11/17 11:07:24;;;;;;;26.67;13.40;;;8.50;99.90;;;;;;4957993;28;20031;-85
2021/11/17 11:09:56;;;;;;;30.20;12.10;;;8.50;99.90;;;;;;4957957;29;20031;-85
2021/11/17 11:12:26;;;;;;;25.80;12.53;;;8.60;99.90;;;;;;4953891;28;20324;-86
2021/11/17 11:15:17;;;;;;;25.40;12.40;;;8.60;99.90;;;;;;4955780;29;20027;-87
2021/11/17 11:18:16;;;;;;;26.00;12.30;;;8.60;99.90;;;;;;4954365;28;20035;-86
2021/11/17 11:20:48;;;;;;;29.57;13.57;;;8.60;99.90;;;;;;4934892;29;20111;-84
2021/11/17 11:23:37;;;;;;;25.77;12.93;;;8.60;99.90;;;;;;4954979;28;20098;-84
2021/11/17 11:26:18;;;;;;;27.23;13.30;;;8.70;99.90;;;;;;4953679;28;20257;-85
2021/11/17 11:28:46;;;;;;;32.30;13.77;;;8.70;99.90;;;;;;4969144;28;20032;-85
2021/11/17 11:31:12;;;;;;;27.33;13.73;;;8.70;99.90;;;;;;4951731;28;20035;-85
2021/11/17 11:33:48;;;;;;;27.63;14.13;;;8.60;99.90;;;;;;4936646;29;20086;-85
2021/11/17 11:36:14;;;;;;;27.60;14.07;;;8.70;99.90;;;;;;4971793;28;20028;-85
2021/11/17 11:39:06;;;;;;;32.03;14.63;;;8.70;99.90;;;;;;4987862;28;20078;-85
2021/11/17 11:41:46;;;;;;;32.60;15.10;;;8.70;99.90;;;;;;4962282;28;20463;-84
2021/11/17 11:44:18;;;;;;;31.90;15.87;;;8.70;99.90;;;;;;4988388;28;20146;-86
2021/11/17 11:47:16;;;;;;;33.73;15.73;;;8.70;99.90;;;;;;4987487;28;20039;-86
2021/11/17 11:50:23;;;;;;;32.70;16.00;;;8.70;99.90;;;;;;4986971;28;20038;-85
2021/11/17 11:53:04;;;;;;;34.93;16.63;;;8.70;99.90;;;;;;4913108;29;20142;-86
2021/11/17 11:55:53;;;;;;;37.27;17.60;;;8.80;99.90;;;;;;4897333;29;20040;-86
2021/11/17 11:58:20;;;;;;;44.03;20.03;;;8.70;99.90;;;;;;4957620;28;20039;-82
2021/11/17 12:01:18;;;;;;;43.00;20.63;;;8.80;99.90;;;;;;4984287;28;20445;-82
2021/11/17 12:03:55;;;;;;;48.47;22.17;;;8.80;99.90;;;;;;4923125;29;20050;-83
2021/11/17 12:06:32;;;;;;;54.90;22.63;;;8.80;99.90;;;;;;4969972;28;20057;-82
2021/11/17 12:09:16;;;;;;;49.97;22.53;;;8.80;99.90;;;;;;4970760;28;20035;-82
2021/11/17 12:11:59;;;;;;;51.37;24.23;;;8.80;99.90;;;;;;4970461;28;20028;-82
2021/11/17 12:14:51;;;;;;;52.43;23.93;;;8.90;99.90;;;;;;4970328;28;20490;-82
2021/11/17 12:17:29;;;;;;;55.80;22.90;;;8.80;99.90;;;;;;4970028;28;20038;-82
2021/11/17 12:19:58;;;;;;;51.37;22.23;;;8.80;99.90;;;;;;4969098;28;20035;-83
2021/11/17 12:22:42;;;;;;;53.92;23.98;;;8.90;99.90;;;;;;4953594;29;20549;-82
2021/11/17 12:25:18;;;;;;;49.70;23.00;;;8.90;99.90;;;;;;4970404;28;20035;-82
2021/11/17 12:27:44;;;;;;;55.27;23.40;;;8.90;99.90;;;;;;4954927;28;20035;-82
2021/11/17 12:30:39;;;;;;;59.90;25.03;;;8.90;99.90;;;;;;4969276;28;20035;-82
2021/11/17 12:33:13;;;;;;;56.77;25.00;;;8.90;99.90;;;;;;4925424;29;20061;-82
2021/11/17 12:35:44;;;;;;;57.67;24.60;;;8.90;99.90;;;;;;4970155;28;20476;-82
2021/11/17 12:38:15;;;;;;;55.20;24.17;;;8.90;99.90;;;;;;4970286;28;20035;-82
2021/11/17 12:40:48;;;;;;;50.77;21.70;;;8.90;99.90;;;;;;4969436;28;20090;-83
2021/11/17 12:43:32;;;;;;;54.10;22.23;;;8.90;99.90;;;;;;4953999;28;20099;-82
2021/11/17 12:46:25;;;;;;;50.97;20.90;;;9.00;99.90;;;;;;4955202;28;20027;-82
2021/11/17 12:49:14;;;;;;;53.93;20.50;;;8.90;99.90;;;;;;4970552;28;20160;-82
2021/11/17 12:51:54;;;;;;;53.03;22.53;;;8.90;99.90;;;;;;4955144;29;20043;-82
2021/11/17 12:54:35;;;;;;;52.20;22.30;;;8.90;99.90;;;;;;4953631;29;20290;-82
2021/11/17 12:57:12;;;;;;;50.20;21.13;;;9.00;99.90;;;;;;4969877;28;20042;-82
2021/11/17 12:59:44;;;;;;;55.73;20.93;;;9.00;99.90;;;;;;4969580;28;20027;-82
2021/11/17 13:02:22;;;;;;;59.73;22.10;;;9.00;99.90;;;;;;4969572;28;20031;-82
2021/11/17 13:04:51;;;;;;;61.60;22.53;;;9.00;99.90;;;;;;4953705;28;20469;-82
2021/11/17 13:07:42;;;;;;;53.40;20.52;;;9.00;99.90;;;;;;4954897;28;20059;-82
2021/11/17 13:10:09;;;;;;;54.03;21.03;;;9.00;99.90;;;;;;4933543;28;20064;-84
2021/11/17 13:12:37;;;;;;;58.37;21.37;;;9.00;99.90;;;;;;4933926;29;20079;-83
2021/11/17 13:15:11;;;;;;;55.70;21.60;;;9.00;99.90;;;;;;4933267;29;20138;-84
2021/11/17 13:17:42;;;;;;;55.47;21.60;;;9.00;99.90;;;;;;4948778;28;20028;-86
2021/11/17 13:20:16;;;;;;;55.37;20.63;;;9.10;99.90;;;;;;4957228;28;20124;-87
2021/11/17 13:22:50;;;;;;;54.93;19.70;;;9.10;99.90;;;;;;4948469;28;20057;-86
2021/11/17 13:25:45;;;;;;;54.03;21.33;;;9.10;99.90;;;;;;4932591;29;20525;-87
2021/11/17 13:28:57;;;;;;;58.73;21.80;;;9.10;99.90;;;;;;4934430;28;20028;-85
2021/11/17 13:31:35;;;;;;;54.50;21.10;;;9.10;99.90;;;;;;4932855;29;20047;-83
2021/11/17 13:34:24;;;;;;;53.55;21.70;;;9.20;99.90;;;;;;4935297;29;20566;-86
2021/11/17 13:36:53;;;;;;;55.45;21.30;;;9.20;99.90;;;;;;4931725;29;20234;-84
2021/11/17 13:39:25;;;;;;;62.88;22.38;;;9.20;99.90;;;;;;4954174;28;20067;-82
2021/11/17 13:41:54;;;;;;;56.07;21.20;;;9.20;99.90;;;;;;4954718;28;20043;-83
2021/11/17 13:44:26;;;;;;;59.83;21.77;;;9.20;99.90;;;;;;4938224;29;20074;-83
2021/11/17 13:47:04;;;;;;;66.13;21.63;;;9.20;99.90;;;;;;4938253;29;20098;-82
2021/11/17 13:49:30;;;;;;;68.77;24.63;;;9.40;99.90;;;;;;4952887;29;20044;-84
2021/11/17 13:51:57;;;;;;;67.37;23.77;;;9.60;99.90;;;;;;4951854;29;20059;-83
2021/11/17 13:54:23;;;;;;;65.43;22.10;;;9.60;99.90;;;;;;4951964;29;20057;-84
2021/11/17 13:56:49;;;;;;;59.87;21.93;;;9.60;99.90;;;;;;4943420;28;20475;-83
2021/11/17 13:59:15;;;;;;;61.47;22.40;;;9.90;99.90;;;;;;4989570;28;20019;-83
2021/11/17 14:01:42;;;;;;;57.27;21.70;;;10.00;99.90;;;;;;4980017;28;20118;-84
2021/11/17 14:04:09;;;;;;;63.60;23.00;;;10.10;99.90;;;;;;4987488;28;20034;-84
2021/11/17 14:06:35;;;;;;;58.53;21.33;;;10.00;99.90;;;;;;4973530;28;20066;-84
2021/11/17 14:09:01;;;;;;;56.13;21.90;;;10.30;99.90;;;;;;4990481;28;20502;-84
2021/11/17 14:11:27;;;;;;;58.67;22.27;;;10.50;99.90;;;;;;4989380;28;20045;-86
2021/11/17 14:13:53;;;;;;;57.57;21.80;;;10.40;99.90;;;;;;4989718;28;20038;-87
2021/11/17 14:16:19;;;;;;;57.97;22.43;;;10.30;99.90;;;;;;4973656;28;20026;-88
2021/11/17 14:18:50;;;;;;;60.13;22.43;;;10.20;99.90;;;;;;4990104;28;20065;-87
2021/11/17 14:21:17;;;;;;;60.53;22.87;;;10.10;99.90;;;;;;4989651;28;20027;-89
2021/11/17 14:23:43;;;;;;;57.80;23.03;;;10.00;99.90;;;;;;4989875;28;20666;-87
2021/11/17 14:26:12;;;;;;;56.47;24.17;;;10.00;99.90;;;;;;4989545;28;20062;-86
2021/11/17 14:28:41;;;;;;;66.95;24.45;;;9.90;99.90;;;;;;4989756;28;20041;-84
2021/11/17 14:31:29;;;;;;;57.20;22.05;;;9.80;99.90;;;;;;4973596;28;20031;-84
2021/11/17 14:33:59;;;;;;;58.63;23.47;;;9.80;99.90;;;;;;4989283;28;20053;-84
2021/11/17 14:36:31;;;;;;;54.93;21.90;;;9.70;99.90;;;;;;4989227;28;20381;-84
2021/11/17 14:39:00;;;;;;;58.63;22.53;;;9.70;99.90;;;;;;4988440;28;20033;-84
2021/11/17 14:41:26;;;;;;;62.83;25.10;;;9.70;99.90;;;;;;4989021;28;20062;-84
2021/11/17 14:43:51;;;;;;;62.70;24.77;;;9.60;99.90;;;;;;4988048;28;20073;-85
2021/11/17 14:46:17;;;;;;;65.93;23.20;;;9.60;99.90;;;;;;4988774;28;20031;-83
2021/11/17 14:48:44;;;;;;;59.83;23.80;;;9.60;99.90;;;;;;4989110;28;20035;-85
2021/11/17 14:51:11;;;;;;;58.80;24.27;;;9.60;99.90;;;;;;4987807;28;20038;-84
2021/11/17 14:53:40;;;;;;;73.60;24.23;;;9.60;99.90;;;;;;4974013;28;20078;-85
2021/11/17 14:56:06;;;;;;;68.45;24.52;;;9.60;99.90;;;;;;4988696;28;20051;-85
2021/11/17 14:58:31;;;;;;;63.13;24.77;;;9.60;99.90;;;;;;4973772;28;20058;-84
2021/11/17 15:01:00;;;;;;;73.90;26.07;;;9.60;99.90;;;;;;4987759;28;20480;-85
2021/11/17 15:03:26;;;;;;;71.20;24.42;;;9.60;99.90;;;;;;4988762;28;20027;-85
2021/11/17 15:05:51;;;;;;;72.80;26.63;;;9.60;99.90;;;;;;4988191;28;20130;-85
2021/11/17 15:08:17;;;;;;;69.00;25.60;;;9.60;99.90;;;;;;4988381;28;20037;-85
2021/11/17 15:10:45;;;;;;;71.67;26.10;;;9.60;99.90;;;;;;4987477;28;20042;-84
2021/11/17 15:13:12;;;;;;;67.70;25.07;;;9.60;99.90;;;;;;4988413;28;20090;-85
2021/11/17 15:15:44;;;;;;;69.53;26.13;;;9.60;99.90;;;;;;4987967;28;20030;-85
2021/11/17 15:18:10;;;;;;;65.90;24.57;;;9.60;99.90;;;;;;4989147;28;20034;-85
2021/11/17 15:20:37;;;;;;;76.00;26.90;;;9.60;99.90;;;;;;4975411;28;20022;-84
2021/11/17 15:23:05;;;;;;;68.97;26.87;;;9.60;99.90;;;;;;4988789;28;20039;-88
2021/11/17 15:25:35;;;;;;;73.07;26.83;;;9.60;99.90;;;;;;4987793;28;20133;-86
2021/11/17 15:28:06;;;;;;;67.67;26.83;;;9.50;99.90;;;;;;4987397;28;20181;-86
2021/11/17 15:30:41;;;;;;;63.27;25.07;;;9.60;99.90;;;;;;4986788;28;20057;-86
2021/11/17 15:33:09;;;;;;;72.07;26.03;;;9.60;99.90;;;;;;4987545;28;20035;-86
2021/11/17 15:35:35;;;;;;;68.17;25.60;;;9.50;99.90;;;;;;4987111;28;20045;-86
2021/11/17 15:38:02;;;;;;;70.13;25.87;;;9.50;99.90;;;;;;4987160;28;20047;-86
2021/11/17 15:40:32;;;;;;;74.50;28.40;;;9.50;99.90;;;;;;4986654;28;20046;-86
2021/11/17 15:42:59;;;;;;;70.20;28.30;;;9.50;99.90;;;;;;4987452;28;20103;-86
2021/11/17 15:45:25;;;;;;;78.77;28.27;;;9.50;99.90;;;;;;4986949;28;20041;-86
2021/11/17 15:47:52;;;;;;;70.10;26.50;;;9.50;99.90;;;;;;4971818;28;20026;-86
2021/11/17 15:50:27;;;;;;;76.97;27.23;;;9.50;99.90;;;;;;4969959;28;20034;-86
2021/11/17 15:52:54;;;;;;;77.10;27.20;;;9.50;99.90;;;;;;4987178;28;20035;-86